createdAt,value
2023-04-27T00:01:26.080Z,4.30
2023-04-27T00:03:53.322Z,4.32
2023-04-27T00:06:20.610Z,4.28
2023-04-27T00:08:47.755Z,4.25
2023-04-27T00:11:14.855Z,4.27
2023-04-27T00:13:42.200Z,4.20
2023-04-27T00:16:09.277Z,4.19
2023-04-27T00:18:37.150Z,4.14
2023-04-27T00:21:04.241Z,4.05
2023-04-27T00:23:31.652Z,4.07
2023-04-27T00:25:58.647Z,4.04
2023-04-27T00:28:26.156Z,4.08
2023-04-27T00:30:54.608Z,4.05
2023-04-27T00:33:21.752Z,3.91
2023-04-27T00:35:48.832Z,3.82
2023-04-27T00:38:15.932Z,3.82
2023-04-27T00:40:42.964Z,3.73
2023-04-27T00:43:10.031Z,3.71
2023-04-27T00:45:42.830Z,3.71
2023-04-27T00:48:13.341Z,3.68
2023-04-27T00:50:40.458Z,3.65
2023-04-27T00:53:07.872Z,3.61
2023-04-27T00:55:34.952Z,3.54
2023-04-27T00:58:02.074Z,3.42
2023-04-27T01:00:29.267Z,3.38
2023-04-27T01:02:56.953Z,3.38
2023-04-27T01:05:26.919Z,3.24
2023-04-27T01:07:54.073Z,3.16
2023-04-27T01:10:21.214Z,3.13
2023-04-27T01:12:48.273Z,3.11
2023-04-27T01:15:15.302Z,3.05
2023-04-27T01:17:43.166Z,3.04
2023-04-27T01:20:11.147Z,2.91
2023-04-27T01:22:38.449Z,2.79
2023-04-27T01:25:07.062Z,2.78
2023-04-27T01:27:34.122Z,2.63
2023-04-27T01:30:01.199Z,2.59
2023-04-27T01:32:28.268Z,2.54
2023-04-27T01:34:55.380Z,2.55
2023-04-27T01:37:22.557Z,2.55
2023-04-27T01:39:49.586Z,2.58
2023-04-27T01:42:17.295Z,2.56
2023-04-27T01:44:44.653Z,2.52
2023-04-27T01:47:11.773Z,2.48
2023-04-27T01:49:38.806Z,2.47
2023-04-27T01:52:06.034Z,2.44
2023-04-27T01:54:36.397Z,2.37
2023-04-27T01:57:03.603Z,2.27
2023-04-27T01:59:30.804Z,2.18
2023-04-27T02:01:57.991Z,2.08
2023-04-27T02:04:26.462Z,1.99
2023-04-27T02:06:53.673Z,1.99
2023-04-27T02:09:21.030Z,1.93
2023-04-27T02:11:48.126Z,1.98
2023-04-27T02:14:15.294Z,1.91
2023-04-27T02:16:42.381Z,1.88
2023-04-27T02:19:09.513Z,1.94
2023-04-27T02:21:37.058Z,1.96
2023-04-27T02:24:04.467Z,2.00
2023-04-27T02:26:32.388Z,1.94
2023-04-27T02:28:59.681Z,1.96
2023-04-27T02:31:27.484Z,1.93
2023-04-27T02:33:54.603Z,1.89
2023-04-27T02:36:21.939Z,1.85
2023-04-27T02:38:49.143Z,1.89
2023-04-27T02:41:16.249Z,1.88
2023-04-27T02:43:43.301Z,1.81
2023-04-27T02:46:10.428Z,1.80
2023-04-27T02:48:37.551Z,1.82
2023-04-27T02:51:05.096Z,1.79
2023-04-27T02:53:32.216Z,1.76
2023-04-27T02:55:59.307Z,1.69
2023-04-27T02:58:26.673Z,1.65
2023-04-27T03:00:57.410Z,1.53
2023-04-27T03:03:24.677Z,1.43
2023-04-27T03:05:51.811Z,1.40
2023-04-27T03:08:19.010Z,1.34
2023-04-27T03:10:46.110Z,1.31
2023-04-27T03:13:14.852Z,1.33
2023-04-27T03:15:41.969Z,1.30
2023-04-27T03:18:09.306Z,1.28
2023-04-27T03:20:36.553Z,1.31
2023-04-27T03:23:03.623Z,1.29
2023-04-27T03:25:30.862Z,1.30
2023-04-27T03:27:57.956Z,1.27
2023-04-27T03:30:25.006Z,1.21
2023-04-27T03:32:52.158Z,1.19
2023-04-27T03:35:19.603Z,1.16
2023-04-27T03:37:46.916Z,1.19
2023-04-27T03:40:14.595Z,1.19
2023-04-27T03:42:41.666Z,1.13
2023-04-27T03:45:10.269Z,1.16
2023-04-27T03:47:37.309Z,1.17
2023-04-27T03:50:04.704Z,1.19
2023-04-27T03:52:31.778Z,1.17
2023-04-27T03:54:59.188Z,1.19
2023-04-27T03:57:26.305Z,1.16
2023-04-27T03:59:53.378Z,1.19
2023-04-27T04:02:22.080Z,1.24
2023-04-27T04:04:49.705Z,1.18
2023-04-27T04:07:16.975Z,1.10
2023-04-27T04:09:44.532Z,1.05
2023-04-27T04:12:11.595Z,1.01
2023-04-27T04:14:38.638Z,0.94
2023-04-27T04:17:05.729Z,0.96
2023-04-27T04:19:33.949Z,0.98
2023-04-27T04:22:01.033Z,0.95
2023-04-27T04:24:28.111Z,0.98
2023-04-27T04:26:55.970Z,0.83
2023-04-27T04:29:23.550Z,0.91
2023-04-27T04:31:51.026Z,1.00
2023-04-27T04:34:19.621Z,0.93
2023-04-27T04:36:53.069Z,0.99
2023-04-27T04:39:22.890Z,1.04
2023-04-27T04:41:50.302Z,1.05
2023-04-27T04:44:17.397Z,1.14
2023-04-27T04:46:48.157Z,1.13
2023-04-27T04:49:15.661Z,1.08
2023-04-27T04:51:46.272Z,1.20
2023-04-27T04:54:15.643Z,1.29
2023-04-27T04:56:42.718Z,1.39
2023-04-27T04:59:09.863Z,1.45
2023-04-27T05:01:37.116Z,1.51
2023-04-27T05:04:06.686Z,1.57
2023-04-27T05:06:34.137Z,1.66
2023-04-27T05:09:01.430Z,1.74
2023-04-27T05:11:28.550Z,1.76
2023-04-27T05:13:55.966Z,1.78
2023-04-27T05:16:23.130Z,1.79
2023-04-27T05:18:50.252Z,1.78
2023-04-27T05:21:38.336Z,1.92
2023-04-27T05:24:08.414Z,2.09
2023-04-27T05:26:53.677Z,2.25
2023-04-27T05:29:25.986Z,2.33
2023-04-27T05:31:58.970Z,2.43
2023-04-27T05:34:26.812Z,2.52
2023-04-27T05:36:53.851Z,2.63
2023-04-27T05:39:21.045Z,2.77
2023-04-27T05:41:48.104Z,2.91
2023-04-27T05:44:17.807Z,3.05
2023-04-27T05:46:44.910Z,3.14
2023-04-27T05:49:18.171Z,3.25
2023-04-27T05:51:45.395Z,3.31
2023-04-27T05:54:24.199Z,3.44
2023-04-27T05:57:00.432Z,3.54
2023-04-27T05:59:32.815Z,3.65
2023-04-27T06:02:02.477Z,3.74
2023-04-27T06:04:30.129Z,3.81
2023-04-27T06:06:58.172Z,3.83
2023-04-27T06:09:27.628Z,3.85
2023-04-27T06:11:55.423Z,3.91
2023-04-27T06:14:25.050Z,4.11
2023-04-27T06:16:52.147Z,4.17
2023-04-27T06:19:19.285Z,4.30
2023-04-27T06:21:46.693Z,4.50
2023-04-27T06:24:24.213Z,4.67
2023-04-27T06:27:10.182Z,4.89
2023-04-27T06:29:58.958Z,5.06
2023-04-27T06:32:28.722Z,5.18
2023-04-27T06:34:56.678Z,5.34
2023-04-27T06:37:23.891Z,5.56
2023-04-27T06:39:51.405Z,5.72
2023-04-27T06:42:18.517Z,5.89
2023-04-27T06:44:45.901Z,6.02
2023-04-27T06:47:13.226Z,6.15
2023-04-27T06:49:40.757Z,6.28
2023-04-27T06:52:10.198Z,6.36
2023-04-27T06:54:37.647Z,6.49
2023-04-27T06:57:04.847Z,6.61
2023-04-27T06:59:31.983Z,6.68
2023-04-27T07:01:59.362Z,6.79
2023-04-27T07:04:27.351Z,6.91
2023-04-27T07:06:55.478Z,7.05
2023-04-27T07:09:27.524Z,7.19
2023-04-27T07:11:55.856Z,7.29
2023-04-27T07:14:23.144Z,7.42
2023-04-27T07:16:58.952Z,7.54
2023-04-27T07:19:45.712Z,7.64
2023-04-27T07:22:54.808Z,7.78
2023-04-27T07:25:31.496Z,7.99
2023-04-27T07:28:03.962Z,8.28
2023-04-27T07:30:31.534Z,8.63
2023-04-27T07:32:58.845Z,8.82
2023-04-27T07:35:25.990Z,9.11
2023-04-27T07:37:53.109Z,9.27
2023-04-27T07:40:20.222Z,9.52
2023-04-27T07:42:55.355Z,9.72
2023-04-27T07:45:42.995Z,10.02
2023-04-27T07:48:13.811Z,10.22
2023-04-27T07:50:44.007Z,10.39
2023-04-27T07:53:13.493Z,10.52
2023-04-27T07:55:41.655Z,10.71
2023-04-27T07:58:08.961Z,10.97
2023-04-27T08:00:36.617Z,11.22
2023-04-27T08:03:04.114Z,11.40
2023-04-27T08:05:33.552Z,11.42
2023-04-27T08:08:01.879Z,11.57
2023-04-27T08:10:29.110Z,11.63
2023-04-27T08:12:56.732Z,11.71
2023-04-27T08:15:23.898Z,11.85
2023-04-27T08:17:51.069Z,11.82
2023-04-27T08:20:24.156Z,11.69
2023-04-27T08:22:51.511Z,11.66
2023-04-27T08:25:18.643Z,11.49
2023-04-27T08:27:45.772Z,11.31
2023-04-27T08:30:13.182Z,11.15
2023-04-27T08:32:40.990Z,11.01
2023-04-27T08:35:08.391Z,10.81
2023-04-27T08:37:35.567Z,10.60
2023-04-27T08:40:06.712Z,10.38
2023-04-27T08:42:34.007Z,10.29
2023-04-27T08:45:01.163Z,10.26
2023-04-27T08:47:41.948Z,10.23
2023-04-27T08:50:11.715Z,10.22
2023-04-27T08:52:38.874Z,10.00
2023-04-27T08:55:07.534Z,10.03
2023-04-27T08:57:37.212Z,9.96
2023-04-27T09:00:13.873Z,10.09
2023-04-27T09:02:48.430Z,10.31
2023-04-27T09:05:21.729Z,10.42
2023-04-27T09:08:08.489Z,10.41
2023-04-27T09:10:58.891Z,10.19
2023-04-27T09:13:35.411Z,10.06
2023-04-27T09:16:02.799Z,10.01
2023-04-27T09:18:33.915Z,10.06
2023-04-27T09:21:01.271Z,10.07
2023-04-27T09:23:36.992Z,10.09
2023-04-27T09:26:08.302Z,10.22
2023-04-27T09:28:38.753Z,10.48
2023-04-27T09:31:09.110Z,10.80
2023-04-27T09:33:36.656Z,11.21
2023-04-27T09:36:08.926Z,11.30
2023-04-27T09:38:36.387Z,11.52
2023-04-27T09:41:09.784Z,11.85
2023-04-27T09:43:37.421Z,11.92
2023-04-27T09:46:14.423Z,11.79
2023-04-27T09:48:42.310Z,11.71
2023-04-27T09:51:09.505Z,11.57
2023-04-27T09:53:40.057Z,11.62
2023-04-27T09:56:28.486Z,11.97
2023-04-27T09:59:10.692Z,12.18
2023-04-27T10:01:45.691Z,12.17
2023-04-27T10:04:43.897Z,12.00
2023-04-27T10:07:14.649Z,12.08
2023-04-27T10:09:43.552Z,12.23
2023-04-27T10:12:20.841Z,12.18
2023-04-27T10:14:59.448Z,12.10
2023-04-27T10:17:33.764Z,11.98
2023-04-27T10:20:05.016Z,11.83
2023-04-27T10:22:50.218Z,11.73
2023-04-27T10:25:23.024Z,11.67
2023-04-27T10:27:52.276Z,11.61
2023-04-27T10:30:20.822Z,11.57
2023-04-27T10:32:56.383Z,11.57
2023-04-27T10:35:35.923Z,11.64
2023-04-27T10:38:08.707Z,11.89
2023-04-27T10:40:37.234Z,12.06
2023-04-27T10:43:12.425Z,12.00
2023-04-27T10:45:41.031Z,12.00
2023-04-27T10:48:08.509Z,11.97
2023-04-27T10:50:35.954Z,11.78
2023-04-27T10:53:07.708Z,11.64
2023-04-27T10:55:35.601Z,11.49
2023-04-27T10:58:06.076Z,11.49
2023-04-27T11:00:40.245Z,11.56
2023-04-27T11:03:16.464Z,11.64
2023-04-27T11:05:45.360Z,11.72
2023-04-27T11:08:14.675Z,11.67
2023-04-27T11:10:47.372Z,11.55
2023-04-27T11:13:16.640Z,11.57
2023-04-27T11:15:49.101Z,11.67
2023-04-27T11:18:17.903Z,11.69
2023-04-27T11:20:48.360Z,11.74
2023-04-27T11:23:36.984Z,11.85
2023-04-27T11:26:16.580Z,12.06
2023-04-27T11:28:45.893Z,12.36
2023-04-27T11:31:13.500Z,12.31
2023-04-27T11:33:48.563Z,12.31
2023-04-27T11:36:23.195Z,12.46
2023-04-27T11:38:50.634Z,12.54
2023-04-27T11:41:18.120Z,12.67
2023-04-27T11:43:51.340Z,12.75
2023-04-27T11:46:22.484Z,12.77
2023-04-27T11:48:52.795Z,12.88
2023-04-27T11:51:20.469Z,13.01
2023-04-27T11:53:48.289Z,13.12
2023-04-27T11:56:15.648Z,13.28
2023-04-27T11:58:46.359Z,13.07
2023-04-27T12:01:21.845Z,13.08
2023-04-27T12:03:55.728Z,13.05
2023-04-27T12:06:42.128Z,12.96
2023-04-27T12:09:12.153Z,12.72
2023-04-27T12:11:39.275Z,12.58
2023-04-27T12:14:09.484Z,12.50
2023-04-27T12:16:37.726Z,12.37
2023-04-27T12:19:05.258Z,12.43
2023-04-27T12:21:32.472Z,12.37
2023-04-27T12:24:02.025Z,12.31
2023-04-27T12:26:29.286Z,12.44
2023-04-27T12:28:56.968Z,12.50
2023-04-27T12:31:27.927Z,12.64
2023-04-27T12:33:57.876Z,12.72
2023-04-27T12:36:25.295Z,12.90
2023-04-27T12:38:52.416Z,12.97
2023-04-27T12:41:23.152Z,13.05
2023-04-27T12:43:50.842Z,13.05
2023-04-27T12:46:20.786Z,13.04
2023-04-27T12:48:50.497Z,12.96
2023-04-27T12:51:21.231Z,12.94
2023-04-27T12:53:48.525Z,12.95
2023-04-27T12:56:15.826Z,12.91
2023-04-27T12:58:43.198Z,12.72
2023-04-27T13:01:17.829Z,12.72
2023-04-27T13:03:47.820Z,12.74
2023-04-27T13:06:17.513Z,12.76
2023-04-27T13:08:48.087Z,12.58
2023-04-27T13:11:16.642Z,12.27
2023-04-27T13:13:55.113Z,12.29
2023-04-27T13:16:25.814Z,12.43
2023-04-27T13:18:55.768Z,12.45
2023-04-27T13:21:23.254Z,12.22
2023-04-27T13:23:53.686Z,12.24
2023-04-27T13:26:21.186Z,12.35
2023-04-27T13:28:49.919Z,12.46
2023-04-27T13:31:17.176Z,12.54
2023-04-27T13:33:47.805Z,12.56
2023-04-27T13:36:17.716Z,12.56
2023-04-27T13:38:45.056Z,12.66
2023-04-27T13:41:13.743Z,12.65
2023-04-27T13:43:49.401Z,12.53
2023-04-27T13:46:16.799Z,12.43
2023-04-27T13:48:46.166Z,12.44
2023-04-27T13:51:18.860Z,12.46
2023-04-27T13:53:48.353Z,12.48
2023-04-27T13:56:31.661Z,12.49
2023-04-27T13:58:58.936Z,12.48
2023-04-27T14:01:27.251Z,12.49
2023-04-27T14:03:56.514Z,12.54
2023-04-27T14:06:26.654Z,12.66
2023-04-27T14:09:11.938Z,12.77
2023-04-27T14:11:55.754Z,12.83
2023-04-27T14:14:29.280Z,12.90
2023-04-27T14:16:57.274Z,13.00
2023-04-27T14:19:27.921Z,13.06
2023-04-27T14:22:01.849Z,13.07
2023-04-27T14:24:31.553Z,13.06
2023-04-27T14:26:58.805Z,13.12
2023-04-27T14:29:27.046Z,13.18
2023-04-27T14:31:55.675Z,13.26
2023-04-27T14:34:25.770Z,13.06
2023-04-27T14:37:04.688Z,13.11
2023-04-27T14:39:34.985Z,13.23
2023-04-27T14:42:02.536Z,13.27
2023-04-27T14:44:31.542Z,13.45
2023-04-27T14:46:58.791Z,13.64
2023-04-27T14:49:31.398Z,13.74
2023-04-27T14:52:01.544Z,13.87
2023-04-27T14:54:30.891Z,14.10
2023-04-27T14:57:03.749Z,14.26
2023-04-27T14:59:34.522Z,14.39
2023-04-27T15:02:03.798Z,14.44
2023-04-27T15:04:31.188Z,14.55
2023-04-27T15:07:00.415Z,14.75
2023-04-27T15:09:34.176Z,14.92
2023-04-27T15:12:04.110Z,14.88
2023-04-27T15:14:31.392Z,15.06
2023-04-27T15:16:58.750Z,15.18
2023-04-27T15:19:29.150Z,15.13
2023-04-27T15:25:16.163Z,14.75
2023-04-27T15:27:58.624Z,14.31
2023-04-27T15:30:35.997Z,14.00
2023-04-27T15:33:17.160Z,13.78
2023-04-27T15:42:21.819Z,13.23
2023-04-27T15:45:13.297Z,13.07
2023-04-27T15:48:10.078Z,12.97
2023-04-27T15:51:00.084Z,12.83
2023-04-27T15:54:21.114Z,12.63
2023-04-27T15:59:22.752Z,12.63
2023-04-27T16:01:49.857Z,12.66
2023-04-27T16:04:17.165Z,12.63
2023-04-27T16:06:44.932Z,12.48
2023-04-27T16:09:12.400Z,12.40
2023-04-27T16:11:39.971Z,12.33
2023-04-27T16:14:07.143Z,12.26
2023-04-27T16:16:34.728Z,12.19
2023-04-27T16:19:01.805Z,12.10
2023-04-27T16:21:29.166Z,12.12
2023-04-27T16:23:56.219Z,12.05
2023-04-27T16:26:24.422Z,12.08
2023-04-27T16:28:54.415Z,12.03
2023-04-27T16:31:22.499Z,12.00
2023-04-27T16:33:49.613Z,11.87
2023-04-27T16:36:16.894Z,11.82
2023-04-27T16:38:44.459Z,11.80
2023-04-27T16:41:11.634Z,11.81
2023-04-27T16:43:38.848Z,11.77
2023-04-27T16:46:08.165Z,11.66
2023-04-27T16:48:35.350Z,11.62
2023-04-27T16:51:02.512Z,11.59
2023-04-27T16:53:29.609Z,11.59
2023-04-27T16:55:59.525Z,11.57
2023-04-27T16:58:26.913Z,11.56
2023-04-27T17:00:54.066Z,11.54
2023-04-27T17:03:21.727Z,11.46
2023-04-27T17:05:49.044Z,11.49
2023-04-27T17:08:16.100Z,11.46
2023-04-27T17:10:45.417Z,11.47
2023-04-27T17:13:14.710Z,11.43
2023-04-27T17:15:41.849Z,11.42
2023-04-27T17:18:09.863Z,11.29
2023-04-27T17:20:38.408Z,11.21
2023-04-27T17:23:07.090Z,11.18
2023-04-27T17:25:34.164Z,11.13
2023-04-27T17:28:02.583Z,11.06
2023-04-27T17:30:29.695Z,11.03
2023-04-27T17:32:56.826Z,11.00
2023-04-27T17:35:23.993Z,10.94
2023-04-27T17:37:51.856Z,10.93
2023-04-27T17:40:21.122Z,10.90
2023-04-27T17:42:48.956Z,10.88
2023-04-27T17:45:16.405Z,10.80
2023-04-27T17:47:43.537Z,10.76
2023-04-27T17:50:10.872Z,10.70
2023-04-27T17:52:38.966Z,10.65
2023-04-27T17:55:06.234Z,10.61
2023-04-27T17:57:33.752Z,10.57
2023-04-27T18:00:01.191Z,10.52
2023-04-27T18:02:28.434Z,10.45
2023-04-27T18:04:55.790Z,10.44
2023-04-27T18:07:23.434Z,10.39
2023-04-27T18:09:50.582Z,10.35
2023-04-27T18:12:17.729Z,10.38
2023-04-27T18:14:44.769Z,10.36
2023-04-27T18:17:12.677Z,10.32
2023-04-27T18:19:39.919Z,10.28
2023-04-27T18:22:07.054Z,10.24
2023-04-27T18:24:34.239Z,10.23
2023-04-27T18:27:01.336Z,10.14
2023-04-27T18:29:28.369Z,10.10
2023-04-27T18:31:56.925Z,10.03
2023-04-27T18:34:24.277Z,9.97
2023-04-27T18:36:52.189Z,9.94
2023-04-27T18:39:20.593Z,9.93
2023-04-27T18:41:48.262Z,9.94
2023-04-27T18:44:16.356Z,9.93
2023-04-27T18:46:45.040Z,9.84
2023-04-27T18:49:12.729Z,9.79
2023-04-27T18:51:39.978Z,9.73
2023-04-27T18:54:07.696Z,9.73
2023-04-27T18:56:35.870Z,9.67
2023-04-27T18:59:03.848Z,9.63
2023-04-27T19:01:34.336Z,9.63
2023-04-27T19:04:02.041Z,9.58
2023-04-27T19:06:29.673Z,9.52
2023-04-27T19:08:56.934Z,9.50
2023-04-27T19:11:25.705Z,9.51
2023-04-27T19:13:53.839Z,9.50
2023-04-27T19:16:20.977Z,9.42
2023-04-27T19:18:48.157Z,9.39
2023-04-27T19:21:15.344Z,9.31
2023-04-27T19:23:42.794Z,9.21
2023-04-27T19:26:13.558Z,9.18
2023-04-27T19:28:41.432Z,9.05
2023-04-27T19:31:08.888Z,8.92
2023-04-27T19:33:36.014Z,8.88
2023-04-27T19:36:03.119Z,8.80
2023-04-27T19:38:30.329Z,8.75
2023-04-27T19:40:57.474Z,8.69
2023-04-27T19:43:24.794Z,8.72
2023-04-27T19:45:52.220Z,8.72
2023-04-27T19:48:19.409Z,8.66
2023-04-27T19:50:46.591Z,8.59
2023-04-27T19:53:14.133Z,8.57
2023-04-27T19:55:42.304Z,8.57
2023-04-27T19:58:09.535Z,8.57
2023-04-27T20:00:39.182Z,8.59
2023-04-27T20:03:06.995Z,8.51
2023-04-27T20:05:35.829Z,8.56
2023-04-27T20:08:02.985Z,8.53
2023-04-27T20:10:30.230Z,8.52
2023-04-27T20:12:57.566Z,8.53
2023-04-27T20:15:24.945Z,8.48
2023-04-27T20:17:53.085Z,8.48
2023-04-27T20:20:20.719Z,8.49
2023-04-27T20:22:48.502Z,8.38
2023-04-27T20:25:15.723Z,8.21
2023-04-27T20:27:42.793Z,8.11
2023-04-27T20:30:09.992Z,8.09
2023-04-27T20:32:39.440Z,7.98
2023-04-27T20:35:11.559Z,7.95
2023-04-27T20:37:40.028Z,7.99
2023-04-27T20:40:08.051Z,7.82
2023-04-27T20:42:35.987Z,7.79
2023-04-27T20:45:05.495Z,7.76
2023-04-27T20:47:32.680Z,7.75
2023-04-27T20:49:59.853Z,7.76
2023-04-27T20:52:30.250Z,7.79
2023-04-27T20:54:59.017Z,7.78
2023-04-27T20:57:26.433Z,7.73
2023-04-27T20:59:53.596Z,7.62
2023-04-27T21:02:22.024Z,7.48
2023-04-27T21:04:49.337Z,7.41
2023-04-27T21:07:16.552Z,7.34
2023-04-27T21:09:43.746Z,7.30
2023-04-27T21:12:10.941Z,7.28
2023-04-27T21:14:38.023Z,7.31
2023-04-27T21:17:05.183Z,7.28
2023-04-27T21:19:32.499Z,7.35
2023-04-27T21:21:59.813Z,7.34
2023-04-27T21:24:26.964Z,7.39
2023-04-27T21:26:54.130Z,7.41
2023-04-27T21:29:21.422Z,7.41
2023-04-27T21:31:48.553Z,7.47
2023-04-27T21:34:16.066Z,7.49
2023-04-27T21:36:43.297Z,7.46
2023-04-27T21:39:10.500Z,7.43
2023-04-27T21:41:39.279Z,7.30
2023-04-27T21:44:06.393Z,7.29
2023-04-27T21:46:33.530Z,7.27
2023-04-27T21:49:00.752Z,7.24
2023-04-27T21:51:28.040Z,7.22
2023-04-27T21:53:55.412Z,7.19
2023-04-27T21:56:22.983Z,7.19
2023-04-27T21:58:51.948Z,7.16
2023-04-27T22:01:19.149Z,7.09
2023-04-27T22:03:46.448Z,7.13
2023-04-27T22:06:14.200Z,7.20
2023-04-27T22:08:41.265Z,7.26
2023-04-27T22:11:08.410Z,7.26
2023-04-27T22:13:35.591Z,7.25
2023-04-27T22:16:02.739Z,7.28
2023-04-27T22:18:29.911Z,7.28
2023-04-27T22:20:58.209Z,7.24
2023-04-27T22:23:25.397Z,7.16
2023-04-27T22:25:52.463Z,7.15
2023-04-27T22:28:19.531Z,7.11
2023-04-27T22:30:46.920Z,7.06
2023-04-27T22:33:14.158Z,6.96
2023-04-27T22:35:41.261Z,6.95
2023-04-27T22:38:09.163Z,6.92
2023-04-27T22:40:36.747Z,6.92
2023-04-27T22:43:03.823Z,6.96
2023-04-27T22:45:30.902Z,7.01
2023-04-27T22:47:58.143Z,7.03
2023-04-27T22:50:25.363Z,7.06
2023-04-27T22:52:52.984Z,7.03
2023-04-27T22:55:20.125Z,6.97
2023-04-27T22:57:47.236Z,6.88
2023-04-27T23:00:15.207Z,6.86
2023-04-27T23:02:42.757Z,6.79
2023-04-27T23:05:12.895Z,6.77
2023-04-27T23:07:42.763Z,6.74
2023-04-27T23:10:10.410Z,6.71
2023-04-27T23:12:38.673Z,6.72
2023-04-27T23:15:06.068Z,6.71
2023-04-27T23:17:33.909Z,6.72
2023-04-27T23:20:01.869Z,6.71
2023-04-27T23:22:28.936Z,6.70
2023-04-27T23:24:56.959Z,6.70
2023-04-27T23:27:24.853Z,6.71
2023-04-27T23:29:52.534Z,6.69
2023-04-27T23:32:19.833Z,6.66
2023-04-27T23:34:47.028Z,6.68
2023-04-27T23:37:14.093Z,6.72
2023-04-27T23:39:41.287Z,6.70
2023-04-27T23:42:08.419Z,6.75
2023-04-27T23:44:35.617Z,6.74
2023-04-27T23:47:02.708Z,6.77
2023-04-27T23:49:29.755Z,6.81
2023-04-27T23:51:56.789Z,6.78
2023-04-27T23:54:23.877Z,6.75
2023-04-27T23:56:51.524Z,6.78
2023-04-27T23:59:18.698Z,6.72
